Charlotte, Michigan
Current Conditions -  °F | °C
As of 5:35 PM on Friday 24 Oct 2014 (Local Time) from KFPK Reporting Station
Overcast Overcast  
Wind Chill: 62°   Ceiling: 4200
Heat Index: 62°   Visibility: 10mi
Dew Point: 47°   Wind: 7mph
Humidity: 59%   Direction: 250°WSW
Pressure: 29.96"   Gusts: NA
Location:  42.56°N, 84.83°W
Report Text: KFPK 242135Z AUTO 25006KT 10SM OVC042 17/09 A2996 RMK AO2 T01650085
Loading
Personal Weather Stations






























Interactive Weather Map
Tropical Storm Tracking
New forecast layout! Learn more

10-Day Weather Forecast

Advertisements
Track Severe Weather on mobile